Cicero, Indiana
Current Conditions -  °F | °C
As of 8:35 PM on Monday 22 Dec 2014 (Local Time) from KTYQ Reporting Station
Broken Clouds Broken Clouds  
Wind Chill: 35°   Ceiling: 11000
Heat Index: 41°   Visibility: 10mi
Dew Point: 36°   Wind: 9mph
Humidity: 83%   Direction: 110°ESE
Pressure: 29.69"   Gusts: NA
Location:  40.12°N, 86.01°W
Report Text: KTYQ 230135Z AUTO 11008KT 10SM SCT032 SCT050 BKN110 05/02 A2969 RMK AO2 T00500023
Loading
Personal Weather Stations






























Interactive Weather Map New forecast layout! Learn more

10-Day Weather Forecast

Advertisements
Track Severe Weather on mobile